createdAt,value
2018-09-21T00:00:47.630Z,11.03
2018-09-21T00:03:16.039Z,10.85
2018-09-21T00:05:44.428Z,7.40
2018-09-21T00:08:12.761Z,7.55
2018-09-21T00:10:41.107Z,5.17
2018-09-21T00:13:09.441Z,9.58
2018-09-21T00:15:37.803Z,5.10
2018-09-21T00:18:06.174Z,10.72
2018-09-21T00:20:34.543Z,8.73
2018-09-21T00:23:02.930Z,10.15
2018-09-21T00:25:31.312Z,5.40
2018-09-21T00:27:59.685Z,10.88
2018-09-21T00:30:28.039Z,7.40
2018-09-21T00:32:56.456Z,12.60
2018-09-21T00:35:24.847Z,11.45
2018-09-21T00:37:53.195Z,7.45
2018-09-21T00:40:21.631Z,7.17
2018-09-21T00:42:50.038Z,11.12
2018-09-21T00:45:18.442Z,6.25
2018-09-21T00:47:46.841Z,5.47
2018-09-21T00:50:15.212Z,8.73
2018-09-21T00:52:43.557Z,5.47
2018-09-21T00:55:11.941Z,6.85
2018-09-21T00:57:40.393Z,8.03
2018-09-21T01:00:08.832Z,9.83
2018-09-21T01:02:37.199Z,5.72
2018-09-21T01:05:05.610Z,6.53
2018-09-21T01:07:33.970Z,8.83
2018-09-21T01:10:02.353Z,6.42
2018-09-21T01:12:30.722Z,7.00
2018-09-21T01:14:59.074Z,8.80
2018-09-21T01:17:27.432Z,5.35
2018-09-21T01:19:55.956Z,10.80
2018-09-21T01:22:24.353Z,5.08
2018-09-21T01:24:52.723Z,7.00
2018-09-21T01:27:21.115Z,4.70
2018-09-21T01:29:49.466Z,7.62
2018-09-21T01:32:17.835Z,6.25
2018-09-21T01:34:46.185Z,5.33
2018-09-21T01:37:14.605Z,5.37
2018-09-21T01:39:42.982Z,7.58
2018-09-21T01:42:11.394Z,8.00
2018-09-21T01:44:39.835Z,5.58
2018-09-21T01:47:09.093Z,10.55
2018-09-21T01:49:37.490Z,8.35
2018-09-21T01:52:05.911Z,8.65
2018-09-21T01:54:34.272Z,5.90
2018-09-21T01:57:02.656Z,6.03
2018-09-21T01:59:31.033Z,5.75
2018-09-21T02:01:59.461Z,8.48
2018-09-21T02:04:33.264Z,6.08
2018-09-21T02:07:01.648Z,11.05
2018-09-21T02:09:30.126Z,7.60
2018-09-21T02:11:58.467Z,8.63
2018-09-21T02:14:26.811Z,7.80
2018-09-21T02:16:55.218Z,6.90
2018-09-21T02:19:23.585Z,13.72
2018-09-21T02:21:52.499Z,6.33
2018-09-21T02:24:21.590Z,8.08
2018-09-21T02:26:50.482Z,7.05
2018-09-21T02:29:18.852Z,7.85
2018-09-21T02:31:47.982Z,6.75
2018-09-21T02:34:16.649Z,8.35
2018-09-21T02:36:45.045Z,6.65
2018-09-21T02:39:13.443Z,7.95
2018-09-21T02:41:41.842Z,6.53
2018-09-21T02:44:10.245Z,9.93
2018-09-21T02:46:38.652Z,6.65
2018-09-21T02:49:07.117Z,6.67
2018-09-21T02:51:35.529Z,8.35
2018-09-21T02:54:03.965Z,7.78
2018-09-21T02:56:32.411Z,6.33
2018-09-21T02:59:00.773Z,7.08
2018-09-21T03:01:29.198Z,6.00
2018-09-21T03:03:57.647Z,8.20
2018-09-21T03:06:26.040Z,5.92
2018-09-21T03:08:54.440Z,13.80
2018-09-21T03:11:22.822Z,5.97
2018-09-21T03:13:51.200Z,6.25
2018-09-21T03:16:19.601Z,6.87
2018-09-21T03:18:48.234Z,8.35
2018-09-21T03:21:16.617Z,8.03
2018-09-21T03:23:45.281Z,6.65
2018-09-21T03:26:13.667Z,6.55
2018-09-21T03:28:42.038Z,7.85
2018-09-21T03:31:10.518Z,7.10
2018-09-21T03:33:39.125Z,6.33
2018-09-21T03:36:07.493Z,8.08
2018-09-21T03:38:35.878Z,7.30
2018-09-21T03:41:04.210Z,7.92
2018-09-21T03:43:32.701Z,6.70
2018-09-21T03:46:01.091Z,7.25
2018-09-21T03:48:29.495Z,7.37
2018-09-21T03:50:57.886Z,7.25
2018-09-21T03:53:26.282Z,9.73
2018-09-21T03:55:54.679Z,6.87
2018-09-21T03:58:23.230Z,7.45
2018-09-21T04:00:51.611Z,7.45
2018-09-21T04:03:20.039Z,7.55
2018-09-21T04:05:48.459Z,7.80
2018-09-21T04:08:16.895Z,6.90
2018-09-21T04:10:45.283Z,7.20
2018-09-21T04:13:13.706Z,6.83
2018-09-21T04:15:42.092Z,7.45
2018-09-21T04:18:10.509Z,6.83
2018-09-21T04:20:38.941Z,8.33
2018-09-21T04:23:07.452Z,7.90
2018-09-21T04:25:35.861Z,7.37
2018-09-21T04:28:04.307Z,9.30
2018-09-21T04:30:32.741Z,7.45
2018-09-21T04:33:01.154Z,7.92
2018-09-21T04:35:29.853Z,8.25
2018-09-21T04:37:58.473Z,7.25
2018-09-21T04:40:26.889Z,8.10
2018-09-21T04:42:55.321Z,7.45
2018-09-21T04:45:23.779Z,7.87
2018-09-21T04:47:52.325Z,7.78
2018-09-21T04:50:20.785Z,7.33
2018-09-21T04:52:49.266Z,9.80
2018-09-21T04:55:17.848Z,6.70
2018-09-21T04:57:46.353Z,7.22
2018-09-21T05:00:14.747Z,7.08
2018-09-21T05:02:43.533Z,10.70
2018-09-21T05:05:11.948Z,7.55
2018-09-21T05:07:40.468Z,7.53
2018-09-21T05:10:08.889Z,8.13
2018-09-21T05:12:37.342Z,7.30
2018-09-21T05:15:06.418Z,8.08
2018-09-21T05:17:34.801Z,6.80
2018-09-21T05:20:03.199Z,8.23
2018-09-21T05:22:31.592Z,6.87
2018-09-21T05:25:00.025Z,7.60
2018-09-21T05:27:28.498Z,6.90
2018-09-21T05:29:56.971Z,6.97
2018-09-21T05:32:25.527Z,6.78
2018-09-21T05:34:54.150Z,6.97
2018-09-21T05:37:22.529Z,6.95
2018-09-21T05:39:51.028Z,7.67
2018-09-21T05:42:19.458Z,6.70
2018-09-21T05:44:47.958Z,8.45
2018-09-21T05:47:22.920Z,6.87
2018-09-21T05:49:51.396Z,6.58
2018-09-21T05:52:19.867Z,6.33
2018-09-21T05:54:48.857Z,7.05
2018-09-21T05:57:17.290Z,6.87
2018-09-21T05:59:45.687Z,6.05
2018-09-21T06:02:14.450Z,6.00
2018-09-21T06:04:42.795Z,8.73
2018-09-21T06:07:11.332Z,6.58
2018-09-21T06:09:39.743Z,8.23
2018-09-21T06:12:08.204Z,5.95
2018-09-21T06:14:36.626Z,6.83
2018-09-21T06:17:05.197Z,5.78
2018-09-21T06:19:34.130Z,5.28
2018-09-21T06:22:02.684Z,5.70
2018-09-21T06:24:31.503Z,7.45
2018-09-21T06:27:00.519Z,5.67
2018-09-21T06:29:29.479Z,5.72
2018-09-21T06:31:59.619Z,8.85
2018-09-21T06:34:28.553Z,5.20
2018-09-21T06:36:57.064Z,5.78
2018-09-21T06:39:25.474Z,10.93
2018-09-21T06:41:54.163Z,5.00
2018-09-21T06:44:22.661Z,4.92
2018-09-21T06:46:51.032Z,7.42
2018-09-21T06:49:19.447Z,5.45
2018-09-21T06:51:47.916Z,4.72
2018-09-21T06:54:16.463Z,5.30
2018-09-21T06:56:44.870Z,5.20
2018-09-21T06:59:13.345Z,4.47
2018-09-21T07:01:41.822Z,7.40
2018-09-21T07:04:10.308Z,5.00
2018-09-21T07:06:38.898Z,5.67
2018-09-21T07:09:10.965Z,5.17
2018-09-21T07:11:39.464Z,4.78
2018-09-21T07:14:07.936Z,9.35
2018-09-21T07:16:36.477Z,5.28
2018-09-21T07:19:04.874Z,5.28
2018-09-21T07:21:33.310Z,10.65
2018-09-21T07:24:01.809Z,4.47
2018-09-21T07:26:30.195Z,4.40
2018-09-21T07:28:58.678Z,4.45
2018-09-21T07:31:27.119Z,4.97
2018-09-21T07:33:55.668Z,4.42
2018-09-21T07:36:24.120Z,5.12
2018-09-21T07:38:52.515Z,4.87
2018-09-21T07:41:20.944Z,4.33
2018-09-21T07:43:49.335Z,6.70
2018-09-21T07:46:17.743Z,5.67
2018-09-21T07:48:46.202Z,4.78
2018-09-21T07:51:14.696Z,4.95
2018-09-21T07:53:43.084Z,7.90
2018-09-21T07:56:11.538Z,5.03
2018-09-21T07:58:40.039Z,4.15
2018-09-21T08:01:08.596Z,5.20
2018-09-21T08:03:36.976Z,4.30
2018-09-21T08:06:05.393Z,4.85
2018-09-21T08:08:33.759Z,4.25
2018-09-21T08:11:02.201Z,4.42
2018-09-21T08:13:30.602Z,5.10
2018-09-21T08:15:59.019Z,4.90
2018-09-21T08:18:27.461Z,5.80
2018-09-21T08:20:55.898Z,6.05
2018-09-21T08:23:24.318Z,4.20
2018-09-21T08:25:52.739Z,5.87
2018-09-21T08:28:21.153Z,4.78
2018-09-21T08:30:49.603Z,4.50
2018-09-21T08:33:18.068Z,4.80
2018-09-21T08:35:46.433Z,6.50
2018-09-21T08:38:14.818Z,6.58
2018-09-21T08:40:43.269Z,4.22
2018-09-21T08:43:11.774Z,9.83
2018-09-21T08:45:40.226Z,4.78
2018-09-21T08:48:08.767Z,4.95
2018-09-21T08:50:37.191Z,8.05
2018-09-21T08:53:06.051Z,5.90
2018-09-21T08:55:34.590Z,12.35
2018-09-21T08:58:03.474Z,5.05
2018-09-21T09:00:31.976Z,8.25
2018-09-21T09:03:00.397Z,7.50
2018-09-21T09:05:28.783Z,6.00
2018-09-21T09:07:57.214Z,5.85
2018-09-21T09:10:25.680Z,7.00
2018-09-21T09:12:54.110Z,4.15
2018-09-21T09:15:22.585Z,6.05
2018-09-21T09:17:51.267Z,5.30
2018-09-21T09:20:19.683Z,6.47
2018-09-21T09:22:48.202Z,4.47
2018-09-21T09:25:16.683Z,8.00
2018-09-21T09:27:45.128Z,4.17
2018-09-21T09:30:13.576Z,5.12
2018-09-21T09:32:42.068Z,6.33
2018-09-21T09:35:10.600Z,7.53
2018-09-21T09:37:39.224Z,6.03
2018-09-21T09:40:07.651Z,4.20
2018-09-21T09:42:36.104Z,5.97
2018-09-21T09:45:04.521Z,6.87
2018-09-21T09:47:32.956Z,3.67
2018-09-21T09:50:01.328Z,5.95
2018-09-21T09:52:29.851Z,5.28
2018-09-21T09:54:58.435Z,5.97
2018-09-21T09:57:26.844Z,6.53
2018-09-21T09:59:55.365Z,4.05
2018-09-21T10:02:23.876Z,7.37
2018-09-21T10:04:52.378Z,3.75
2018-09-21T10:07:20.819Z,5.28
2018-09-21T10:09:49.282Z,6.25
2018-09-21T10:12:17.777Z,7.92
2018-09-21T10:14:46.204Z,3.90
2018-09-21T10:17:14.685Z,11.22
2018-09-21T10:19:43.510Z,7.87
2018-09-21T10:22:13.473Z,11.97
2018-09-21T10:24:41.933Z,4.42
2018-09-21T10:27:10.557Z,4.10
2018-09-21T10:29:39.044Z,8.73
2018-09-21T10:32:07.471Z,8.23
2018-09-21T10:34:36.121Z,3.92
2018-09-21T10:37:04.550Z,5.67
2018-09-21T10:39:32.953Z,5.05
2018-09-21T10:42:01.394Z,8.30
2018-09-21T10:44:29.809Z,6.47
2018-09-21T10:46:58.342Z,5.00
2018-09-21T10:49:26.706Z,5.10
2018-09-21T10:51:55.096Z,3.67
2018-09-21T10:54:23.551Z,10.03
2018-09-21T10:56:52.029Z,8.13
2018-09-21T10:59:20.412Z,9.20
2018-09-21T11:01:48.843Z,7.95
2018-09-21T11:04:17.285Z,8.58
2018-09-21T11:06:45.766Z,10.72
2018-09-21T11:09:14.182Z,8.98
2018-09-21T11:11:42.629Z,9.53
2018-09-21T11:14:11.033Z,9.55
2018-09-21T11:16:39.504Z,7.37
2018-09-21T11:19:08.021Z,7.22
2018-09-21T11:21:36.520Z,8.10
2018-09-21T11:24:04.956Z,17.35
2018-09-21T11:26:33.457Z,9.35
2018-09-21T11:29:01.910Z,8.95
2018-09-21T11:31:30.311Z,10.45
2018-09-21T11:33:58.831Z,11.35
2018-09-21T11:36:27.328Z,14.50
2018-09-21T11:38:55.815Z,12.05
2018-09-21T11:41:24.328Z,12.73
2018-09-21T11:43:52.781Z,15.90
2018-09-21T11:46:21.187Z,17.87
2018-09-21T11:48:49.665Z,12.15
2018-09-21T11:51:18.091Z,8.23
2018-09-21T11:53:46.554Z,13.20
2018-09-21T11:56:14.977Z,14.10
2018-09-21T11:58:43.387Z,9.55
2018-09-21T12:01:11.812Z,15.40
2018-09-21T12:03:40.356Z,14.80
2018-09-21T12:06:09.057Z,15.63
2018-09-21T12:08:38.520Z,10.32
2018-09-21T12:11:07.968Z,12.98
2018-09-21T12:13:36.432Z,11.95
2018-09-21T12:16:04.890Z,8.25
2018-09-21T12:18:33.342Z,12.80
2018-09-21T12:21:01.766Z,15.03
2018-09-21T12:23:30.223Z,16.90
2018-09-21T12:25:58.643Z,24.30
2018-09-21T12:28:27.107Z,15.93
2018-09-21T12:30:55.602Z,19.15
2018-09-21T12:33:24.157Z,31.93
2018-09-21T12:35:52.769Z,35.48
2018-09-21T12:38:21.215Z,21.57
2018-09-21T12:40:49.594Z,21.37
2018-09-21T12:43:18.038Z,26.27
2018-09-21T12:45:46.581Z,32.25
2018-09-21T12:48:15.456Z,36.15
2018-09-21T12:50:44.177Z,15.93
2018-09-21T12:53:12.643Z,21.65
2018-09-21T12:55:41.159Z,25.70
2018-09-21T12:58:09.834Z,24.70
2018-09-21T13:00:43.396Z,13.62
2018-09-21T13:03:11.971Z,20.02
2018-09-21T13:05:40.468Z,25.45
2018-09-21T13:08:08.978Z,20.68
2018-09-21T13:10:37.428Z,16.52
2018-09-21T13:13:06.028Z,19.57
2018-09-21T13:15:34.529Z,13.83
2018-09-21T13:18:03.117Z,18.23
2018-09-21T13:20:32.602Z,25.35
2018-09-21T13:23:01.781Z,27.05
2018-09-21T13:25:30.330Z,16.65
2018-09-21T13:27:59.200Z,15.35
2018-09-21T13:30:27.674Z,19.70
2018-09-21T13:32:56.260Z,15.93
2018-09-21T13:35:24.892Z,28.00
2018-09-21T13:37:53.337Z,18.48
2018-09-21T13:40:21.926Z,20.77
2018-09-21T13:42:50.426Z,19.80
2018-09-21T13:45:19.190Z,17.92
2018-09-21T13:47:47.814Z,12.18
2018-09-21T13:50:16.365Z,15.98
2018-09-21T13:52:44.919Z,17.57
2018-09-21T13:55:13.803Z,14.43
2018-09-21T13:57:42.338Z,15.55
2018-09-21T14:00:12.198Z,23.90
2018-09-21T14:02:44.248Z,13.05
2018-09-21T14:07:52.771Z,15.40
2018-09-21T14:10:21.202Z,9.90
2018-09-21T14:12:49.731Z,17.42
2018-09-21T14:15:18.814Z,16.15
2018-09-21T14:17:47.720Z,13.48
2018-09-21T14:20:16.143Z,13.83
2018-09-21T14:22:44.590Z,14.95
2018-09-21T14:25:13.192Z,17.50
2018-09-21T14:27:41.809Z,140.52
2018-09-21T14:30:10.802Z,75.95
2018-09-21T14:32:39.469Z,48.52
2018-09-21T14:35:08.445Z,46.33
2018-09-21T14:37:37.097Z,18.65
2018-09-21T14:40:05.765Z,21.65
2018-09-21T14:42:34.330Z,22.90
2018-09-21T14:45:02.795Z,11.10
2018-09-21T14:47:31.403Z,9.05
2018-09-21T14:50:00.086Z,6.40
2018-09-21T14:52:28.950Z,10.08
2018-09-21T14:54:57.629Z,1.90
2018-09-21T14:57:27.219Z,3.87
2018-09-21T14:59:55.972Z,3.22
2018-09-21T15:02:24.665Z,1.92
2018-09-21T15:04:53.386Z,3.22
2018-09-21T15:07:22.218Z,6.87
2018-09-21T15:09:50.886Z,3.33
2018-09-21T15:12:20.275Z,1.98
2018-09-21T15:14:48.818Z,1.70
2018-09-21T15:17:17.327Z,2.43
2018-09-21T15:19:45.956Z,4.95
2018-09-21T15:22:14.636Z,3.45
2018-09-21T15:24:43.541Z,3.80
2018-09-21T15:27:12.216Z,2.55
2018-09-21T15:29:40.785Z,1.20
2018-09-21T15:32:09.539Z,0.63
2018-09-21T15:34:38.467Z,1.82
2018-09-21T15:37:07.260Z,2.37
2018-09-21T15:39:35.899Z,1.90
2018-09-21T15:42:05.820Z,1.60
2018-09-21T15:44:34.609Z,1.07
2018-09-21T15:47:03.719Z,1.13
2018-09-21T15:49:32.513Z,3.00
2018-09-21T15:52:01.248Z,1.73
2018-09-21T15:54:29.901Z,0.73
2018-09-21T15:56:58.637Z,1.10
2018-09-21T15:59:27.246Z,2.23
2018-09-21T16:01:55.962Z,1.07
2018-09-21T16:04:24.576Z,4.83
2018-09-21T16:06:53.186Z,3.17
2018-09-21T16:09:21.760Z,2.77
2018-09-21T16:11:57.148Z,4.93
2018-09-21T16:14:25.731Z,2.53
2018-09-21T16:16:54.890Z,3.33
2018-09-21T16:19:23.482Z,3.67
2018-09-21T16:21:52.070Z,3.03
2018-09-21T16:24:21.500Z,2.40
2018-09-21T16:26:50.699Z,3.20
2018-09-21T16:29:20.220Z,1.43
2018-09-21T16:31:49.180Z,2.30
2018-09-21T16:34:17.850Z,1.97
2018-09-21T16:36:46.549Z,3.57
2018-09-21T16:39:15.073Z,1.93
2018-09-21T16:41:43.571Z,2.20
2018-09-21T16:44:12.394Z,6.37
2018-09-21T16:46:41.226Z,4.20
2018-09-21T16:49:09.808Z,4.53
2018-09-21T16:51:38.613Z,3.53
2018-09-21T16:54:07.149Z,4.73
2018-09-21T16:56:40.039Z,4.37
2018-09-21T16:59:09.189Z,2.97
2018-09-21T17:01:38.093Z,2.60
2018-09-21T17:04:06.536Z,3.63
2018-09-21T17:06:35.118Z,1.87
2018-09-21T17:09:04.900Z,5.33
2018-09-21T17:11:33.445Z,2.20
2018-09-21T17:14:01.906Z,7.57
2018-09-21T17:16:30.301Z,2.30
2018-09-21T17:18:58.875Z,4.83
2018-09-21T17:21:27.336Z,2.17
2018-09-21T17:23:55.794Z,4.43
2018-09-21T17:26:24.238Z,9.57
2018-09-21T17:28:52.767Z,11.63
2018-09-21T17:31:21.200Z,3.43
2018-09-21T17:33:50.378Z,3.73
2018-09-21T17:36:18.777Z,3.97
2018-09-21T17:38:47.291Z,2.80
2018-09-21T17:41:15.751Z,4.00
2018-09-21T17:43:44.151Z,4.00
2018-09-21T17:46:12.805Z,4.70
2018-09-21T17:48:41.297Z,3.50
2018-09-21T17:51:09.775Z,3.03
2018-09-21T17:53:38.182Z,4.87
2018-09-21T17:56:06.671Z,3.47
2018-09-21T17:58:35.116Z,2.90
2018-09-21T18:01:03.632Z,4.93
2018-09-21T18:03:32.164Z,6.83
2018-09-21T18:06:00.709Z,4.60
2018-09-21T18:08:29.177Z,6.07
2018-09-21T18:10:57.536Z,4.13
2018-09-21T18:13:26.072Z,7.37
2018-09-21T18:15:54.618Z,4.57
2018-09-21T18:18:23.054Z,5.33
2018-09-21T18:20:51.513Z,2.93
2018-09-21T18:23:19.964Z,5.37
2018-09-21T18:25:48.562Z,3.97
2018-09-21T18:28:17.059Z,6.47
2018-09-21T18:30:45.511Z,5.27
2018-09-21T18:33:14.003Z,4.67
2018-09-21T18:35:42.858Z,3.73
2018-09-21T18:38:11.447Z,5.47
2018-09-21T18:40:40.364Z,5.47
2018-09-21T18:43:09.085Z,3.97
2018-09-21T18:45:37.489Z,3.57
2018-09-21T18:48:06.047Z,3.47
2018-09-21T18:50:34.464Z,2.40
2018-09-21T18:53:02.930Z,3.03
2018-09-21T18:55:31.819Z,7.13
2018-09-21T18:58:00.430Z,2.60
2018-09-21T19:00:28.982Z,6.90
2018-09-21T19:02:57.529Z,2.60
2018-09-21T19:05:25.980Z,6.70
2018-09-21T19:07:54.467Z,5.30
2018-09-21T19:10:23.101Z,4.30
2018-09-21T19:12:51.752Z,5.93
2018-09-21T19:15:20.193Z,6.70
2018-09-21T19:17:48.756Z,7.13
2018-09-21T19:20:17.228Z,2.43
2018-09-21T19:22:45.753Z,5.27
2018-09-21T19:25:14.521Z,7.30
2018-09-21T19:27:43.127Z,2.60
2018-09-21T19:30:11.689Z,6.30
2018-09-21T19:32:40.238Z,5.43
2018-09-21T19:35:08.683Z,5.17
2018-09-21T19:37:37.185Z,5.97
2018-09-21T19:40:05.661Z,2.20
2018-09-21T19:42:34.209Z,3.37
2018-09-21T19:45:02.759Z,7.30
2018-09-21T19:47:31.330Z,7.07
2018-09-21T19:49:59.795Z,7.40
2018-09-21T19:52:29.273Z,4.87
2018-09-21T19:55:11.476Z,2.83
2018-09-21T19:57:40.758Z,8.13
2018-09-21T20:00:09.595Z,3.03
2018-09-21T20:02:38.207Z,4.63
2018-09-21T20:05:06.789Z,4.03
2018-09-21T20:07:35.474Z,5.20
2018-09-21T20:10:04.227Z,2.47
2018-09-21T20:12:32.737Z,3.60
2018-09-21T20:15:01.242Z,7.50
2018-09-21T20:17:29.680Z,5.90
2018-09-21T20:19:58.855Z,3.97
2018-09-21T20:22:27.456Z,3.53
2018-09-21T20:24:56.117Z,4.30
2018-09-21T20:27:24.762Z,5.23
2018-09-21T20:29:57.626Z,7.10
2018-09-21T20:32:31.533Z,2.77
2018-09-21T20:35:00.349Z,8.03
2018-09-21T20:37:28.753Z,9.00
2018-09-21T20:39:57.311Z,6.43
2018-09-21T20:42:25.671Z,4.87
2018-09-21T20:44:54.173Z,4.93
2018-09-21T20:47:22.589Z,6.27
2018-09-21T20:49:51.020Z,5.80
2018-09-21T20:52:19.439Z,8.20
2018-09-21T20:54:47.974Z,6.60
2018-09-21T20:57:16.520Z,5.37
2018-09-21T20:59:44.984Z,9.93
2018-09-21T21:02:13.540Z,3.33
2018-09-21T21:04:41.938Z,2.93
2018-09-21T21:07:10.429Z,2.47
2018-09-21T21:09:38.835Z,2.43
2018-09-21T21:12:07.252Z,5.33
2018-09-21T21:14:35.861Z,4.00
2018-09-21T21:17:04.351Z,3.00
2018-09-21T21:19:32.819Z,5.00
2018-09-21T21:22:01.329Z,5.93
2018-09-21T21:24:29.886Z,4.30
2018-09-21T21:26:58.412Z,3.20
2018-09-21T21:29:26.984Z,3.93
2018-09-21T21:31:55.491Z,3.23
2018-09-21T21:34:24.009Z,4.67
2018-09-21T21:36:52.768Z,3.73
2018-09-21T21:39:21.191Z,3.27
2018-09-21T21:41:49.900Z,3.03
2018-09-21T21:44:18.736Z,2.13
2018-09-21T21:46:47.138Z,3.90
2018-09-21T21:49:15.631Z,6.27
2018-09-21T21:51:44.204Z,2.90
2018-09-21T21:54:12.752Z,4.10
2018-09-21T21:56:41.300Z,19.17
2018-09-21T21:59:09.904Z,5.80
2018-09-21T22:01:43.625Z,2.67
2018-09-21T22:04:12.217Z,1.43
2018-09-21T22:06:40.893Z,1.23
2018-09-21T22:09:10.325Z,1.50
2018-09-21T22:11:44.227Z,2.10
2018-09-21T22:14:13.321Z,3.30
2018-09-21T22:16:41.777Z,2.63
2018-09-21T22:19:11.064Z,4.00
2018-09-21T22:21:39.531Z,1.57
2018-09-21T22:24:08.024Z,2.67
2018-09-21T22:26:36.678Z,4.07
2018-09-21T22:29:05.236Z,3.00
2018-09-21T22:31:33.754Z,2.73
2018-09-21T22:34:02.242Z,0.50
2018-09-21T22:36:30.755Z,1.87
2018-09-21T22:38:59.754Z,2.00
2018-09-21T22:41:28.187Z,3.80
2018-09-21T22:43:56.649Z,1.97
2018-09-21T22:46:25.202Z,2.70
2018-09-21T22:49:23.028Z,7.57
2018-09-21T22:51:51.804Z,2.27
2018-09-21T22:54:20.772Z,2.10
2018-09-21T22:56:49.209Z,5.73
2018-09-21T22:59:17.692Z,2.50
2018-09-21T23:01:46.171Z,5.33
2018-09-21T23:04:14.724Z,1.53
2018-09-21T23:06:43.144Z,2.93
2018-09-21T23:09:12.954Z,2.77
2018-09-21T23:11:42.400Z,2.00
2018-09-21T23:14:11.363Z,2.07
2018-09-21T23:16:40.183Z,2.27
2018-09-21T23:19:08.895Z,5.67
2018-09-21T23:21:37.332Z,5.20
2018-09-21T23:24:05.745Z,1.20
2018-09-21T23:26:34.185Z,4.17
2018-09-21T23:29:02.620Z,3.23
2018-09-21T23:31:31.096Z,1.73
2018-09-21T23:33:59.528Z,4.27
2018-09-21T23:36:27.989Z,1.37
2018-09-21T23:38:56.389Z,3.00
2018-09-21T23:41:24.921Z,3.17
2018-09-21T23:43:53.364Z,2.50
2018-09-21T23:46:21.782Z,1.37
2018-09-21T23:48:50.271Z,13.63
2018-09-21T23:51:18.739Z,2.13
2018-09-21T23:53:47.225Z,1.50
2018-09-21T23:56:15.635Z,1.30
2018-09-21T23:58:44.031Z,1.60
